sensor_id;sensor_type;location;lat;lon;timestamp;temperature;humidity
65584;DHT22;70321;43.592;1.456;2023-07-28T00:01:55;21.66;72.28
65584;DHT22;70321;43.592;1.456;2023-07-28T00:04:22;21.70;72.31
65584;DHT22;70321;43.592;1.456;2023-07-28T00:06:49;21.70;71.96
65584;DHT22;70321;43.592;1.456;2023-07-28T00:09:16;21.69;71.63
65584;DHT22;70321;43.592;1.456;2023-07-28T00:11:42;21.72;71.28
65584;DHT22;70321;43.592;1.456;2023-07-28T00:14:09;21.69;71.54
65584;DHT22;70321;43.592;1.456;2023-07-28T00:16:36;21.75;71.91
65584;DHT22;70321;43.592;1.456;2023-07-28T00:19:04;21.79;71.99
65584;DHT22;70321;43.592;1.456;2023-07-28T00:21:30;21.83;72.04
65584;DHT22;70321;43.592;1.456;2023-07-28T00:23:57;21.88;71.69
65584;DHT22;70321;43.592;1.456;2023-07-28T00:26:24;21.86;71.92
65584;DHT22;70321;43.592;1.456;2023-07-28T00:28:51;21.92;72.23
65584;DHT22;70321;43.592;1.456;2023-07-28T00:31:17;21.92;71.94
65584;DHT22;70321;43.592;1.456;2023-07-28T00:33:44;21.93;71.43
65584;DHT22;70321;43.592;1.456;2023-07-28T00:36:11;21.96;71.70
65584;DHT22;70321;43.592;1.456;2023-07-28T00:38:37;21.97;71.51
65584;DHT22;70321;43.592;1.456;2023-07-28T00:41:04;21.97;71.01
65584;DHT22;70321;43.592;1.456;2023-07-28T00:43:31;21.97;71.68
65584;DHT22;70321;43.592;1.456;2023-07-28T00:45:57;21.99;71.99
65584;DHT22;70321;43.592;1.456;2023-07-28T00:48:24;22.00;72.00
65584;DHT22;70321;43.592;1.456;2023-07-28T00:50:52;22.03;72.02
65584;DHT22;70321;43.592;1.456;2023-07-28T00:53:22;22.00;72.04
65584;DHT22;70321;43.592;1.456;2023-07-28T00:55:50;22.04;72.52
65584;DHT22;70321;43.592;1.456;2023-07-28T00:58:18;22.00;71.74
65584;DHT22;70321;43.592;1.456;2023-07-28T01:00:45;22.02;72.21
65584;DHT22;70321;43.592;1.456;2023-07-28T01:03:11;21.97;72.15
65584;DHT22;70321;43.592;1.456;2023-07-28T01:05:47;21.92;71.90
65584;DHT22;70321;43.592;1.456;2023-07-28T01:08:25;21.82;71.56
65584;DHT22;70321;43.592;1.456;2023-07-28T01:10:53;21.70;71.50
65584;DHT22;70321;43.592;1.456;2023-07-28T01:13:21;21.66;72.14
65584;DHT22;70321;43.592;1.456;2023-07-28T01:15:47;21.60;72.42
65584;DHT22;70321;43.592;1.456;2023-07-28T01:18:14;21.58;72.66
65584;DHT22;70321;43.592;1.456;2023-07-28T01:20:42;21.58;72.64
65584;DHT22;70321;43.592;1.456;2023-07-28T01:23:20;21.58;73.29
65584;DHT22;70321;43.592;1.456;2023-07-28T01:26:05;21.58;73.86
65584;DHT22;70321;43.592;1.456;2023-07-28T01:28:33;21.55;73.90
65584;DHT22;70321;43.592;1.456;2023-07-28T01:31:05;21.53;74.38
65584;DHT22;70321;43.592;1.456;2023-07-28T01:33:32;21.53;74.55
65584;DHT22;70321;43.592;1.456;2023-07-28T01:35:59;21.55;74.73
65584;DHT22;70321;43.592;1.456;2023-07-28T01:38:28;21.56;75.04
65584;DHT22;70321;43.592;1.456;2023-07-28T01:40:55;21.62;75.11
65584;DHT22;70321;43.592;1.456;2023-07-28T01:43:21;21.63;74.21
65584;DHT22;70321;43.592;1.456;2023-07-28T01:45:48;21.63;74.24
65584;DHT22;70321;43.592;1.456;2023-07-28T01:48:15;21.66;74.19
65584;DHT22;70321;43.592;1.456;2023-07-28T01:50:41;21.65;74.35
65584;DHT22;70321;43.592;1.456;2023-07-28T01:53:08;21.63;74.03
65584;DHT22;70321;43.592;1.456;2023-07-28T01:55:35;21.60;73.73
65584;DHT22;70321;43.592;1.456;2023-07-28T01:58:02;21.60;74.04
65584;DHT22;70321;43.592;1.456;2023-07-28T02:00:29;21.60;73.86
65584;DHT22;70321;43.592;1.456;2023-07-28T02:02:56;21.59;74.31
65584;DHT22;70321;43.592;1.456;2023-07-28T02:05:24;21.56;73.95
65584;DHT22;70321;43.592;1.456;2023-07-28T02:07:51;21.52;73.70
65584;DHT22;70321;43.592;1.456;2023-07-28T02:10:26;21.52;73.17
65584;DHT22;70321;43.592;1.456;2023-07-28T02:12:53;21.48;73.57
65584;DHT22;70321;43.592;1.456;2023-07-28T02:15:19;21.46;73.69
65584;DHT22;70321;43.592;1.456;2023-07-28T02:17:46;21.45;73.64
65584;DHT22;70321;43.592;1.456;2023-07-28T02:20:13;21.43;71.76
65584;DHT22;70321;43.592;1.456;2023-07-28T02:22:42;21.31;72.59
65584;DHT22;70321;43.592;1.456;2023-07-28T02:25:09;21.21;73.50
65584;DHT22;70321;43.592;1.456;2023-07-28T02:27:37;21.15;73.44
65584;DHT22;70321;43.592;1.456;2023-07-28T02:30:05;21.09;74.15
65584;DHT22;70321;43.592;1.456;2023-07-28T02:32:32;21.14;73.61
65584;DHT22;70321;43.592;1.456;2023-07-28T02:34:59;21.08;73.95
65584;DHT22;70321;43.592;1.456;2023-07-28T02:37:26;20.96;74.31
65584;DHT22;70321;43.592;1.456;2023-07-28T02:39:52;20.92;75.06
65584;DHT22;70321;43.592;1.456;2023-07-28T02:42:19;20.91;75.07
65584;DHT22;70321;43.592;1.456;2023-07-28T02:44:46;20.90;75.44
65584;DHT22;70321;43.592;1.456;2023-07-28T02:47:13;20.94;74.89
65584;DHT22;70321;43.592;1.456;2023-07-28T02:49:41;20.88;75.14
65584;DHT22;70321;43.592;1.456;2023-07-28T02:52:08;20.85;75.22
65584;DHT22;70321;43.592;1.456;2023-07-28T02:54:35;20.84;75.65
65584;DHT22;70321;43.592;1.456;2023-07-28T02:57:02;20.87;75.27
65584;DHT22;70321;43.592;1.456;2023-07-28T02:59:29;20.87;75.67
65584;DHT22;70321;43.592;1.456;2023-07-28T03:01:55;20.88;76.16
65584;DHT22;70321;43.592;1.456;2023-07-28T03:04:24;20.87;75.72
65584;DHT22;70321;43.592;1.456;2023-07-28T03:06:50;20.80;75.96
65584;DHT22;70321;43.592;1.456;2023-07-28T03:09:17;20.77;75.68
65584;DHT22;70321;43.592;1.456;2023-07-28T03:11:44;20.67;75.94
65584;DHT22;70321;43.592;1.456;2023-07-28T03:14:10;20.68;76.27
65584;DHT22;70321;43.592;1.456;2023-07-28T03:16:40;20.63;76.35
65584;DHT22;70321;43.592;1.456;2023-07-28T03:19:07;20.55;76.78
65584;DHT22;70321;43.592;1.456;2023-07-28T03:21:34;20.50;76.74
65584;DHT22;70321;43.592;1.456;2023-07-28T03:24:05;20.51;77.22
65584;DHT22;70321;43.592;1.456;2023-07-28T03:26:31;20.54;76.95
65584;DHT22;70321;43.592;1.456;2023-07-28T03:28:59;20.51;77.38
65584;DHT22;70321;43.592;1.456;2023-07-28T03:31:25;20.45;77.29
65584;DHT22;70321;43.592;1.456;2023-07-28T03:33:52;20.48;77.43
65584;DHT22;70321;43.592;1.456;2023-07-28T03:36:19;20.54;77.25
65584;DHT22;70321;43.592;1.456;2023-07-28T03:38:46;20.44;77.67
65584;DHT22;70321;43.592;1.456;2023-07-28T03:41:13;20.44;77.91
65584;DHT22;70321;43.592;1.456;2023-07-28T03:43:40;20.40;77.96
65584;DHT22;70321;43.592;1.456;2023-07-28T03:46:07;20.41;78.18
65584;DHT22;70321;43.592;1.456;2023-07-28T03:48:34;20.39;78.33
65584;DHT22;70321;43.592;1.456;2023-07-28T03:51:01;20.39;78.55
65584;DHT22;70321;43.592;1.456;2023-07-28T03:53:28;20.39;78.48
65584;DHT22;70321;43.592;1.456;2023-07-28T03:55:55;20.37;78.68
65584;DHT22;70321;43.592;1.456;2023-07-28T03:58:27;20.39;78.63
65584;DHT22;70321;43.592;1.456;2023-07-28T04:00:54;20.34;78.76
65584;DHT22;70321;43.592;1.456;2023-07-28T04:03:21;20.39;78.84
65584;DHT22;70321;43.592;1.456;2023-07-28T04:05:48;20.36;78.76
65584;DHT22;70321;43.592;1.456;2023-07-28T04:08:15;20.37;78.92
65584;DHT22;70321;43.592;1.456;2023-07-28T04:10:41;20.34;78.94
65584;DHT22;70321;43.592;1.456;2023-07-28T04:13:08;20.34;78.90
65584;DHT22;70321;43.592;1.456;2023-07-28T04:15:35;20.36;79.07
65584;DHT22;70321;43.592;1.456;2023-07-28T04:18:02;20.37;78.97
65584;DHT22;70321;43.592;1.456;2023-07-28T04:20:28;20.36;79.20
65584;DHT22;70321;43.592;1.456;2023-07-28T04:22:55;20.36;79.48
65584;DHT22;70321;43.592;1.456;2023-07-28T04:25:22;20.39;79.40
65584;DHT22;70321;43.592;1.456;2023-07-28T04:27:49;20.40;79.31
65584;DHT22;70321;43.592;1.456;2023-07-28T04:30:15;20.41;79.09
65584;DHT22;70321;43.592;1.456;2023-07-28T04:32:42;20.37;78.99
65584;DHT22;70321;43.592;1.456;2023-07-28T04:35:09;20.36;79.06
65584;DHT22;70321;43.592;1.456;2023-07-28T04:37:35;20.33;78.98
65584;DHT22;70321;43.592;1.456;2023-07-28T04:40:02;20.31;79.02
65584;DHT22;70321;43.592;1.456;2023-07-28T04:42:30;20.34;79.10
65584;DHT22;70321;43.592;1.456;2023-07-28T04:44:56;20.34;79.05
65584;DHT22;70321;43.592;1.456;2023-07-28T04:47:23;20.33;78.94
65584;DHT22;70321;43.592;1.456;2023-07-28T04:49:50;20.30;78.93
65584;DHT22;70321;43.592;1.456;2023-07-28T04:52:16;20.23;78.89
65584;DHT22;70321;43.592;1.456;2023-07-28T04:54:43;20.17;79.13
65584;DHT22;70321;43.592;1.456;2023-07-28T04:57:10;20.14;79.38
65584;DHT22;70321;43.592;1.456;2023-07-28T04:59:40;20.17;79.50
65584;DHT22;70321;43.592;1.456;2023-07-28T05:02:07;20.16;79.73
65584;DHT22;70321;43.592;1.456;2023-07-28T05:04:33;20.20;79.92
65584;DHT22;70321;43.592;1.456;2023-07-28T05:07:02;20.21;79.87
65584;DHT22;70321;43.592;1.456;2023-07-28T05:09:30;20.30;79.72
65584;DHT22;70321;43.592;1.456;2023-07-28T05:11:57;20.33;79.49
65584;DHT22;70321;43.592;1.456;2023-07-28T05:14:23;20.34;79.52
65584;DHT22;70321;43.592;1.456;2023-07-28T05:16:50;20.39;79.42
65584;DHT22;70321;43.592;1.456;2023-07-28T05:19:17;20.37;79.46
65584;DHT22;70321;43.592;1.456;2023-07-28T05:21:43;20.41;79.30
65584;DHT22;70321;43.592;1.456;2023-07-28T05:24:10;20.44;79.43
65584;DHT22;70321;43.592;1.456;2023-07-28T05:26:37;20.47;79.49
65584;DHT22;70321;43.592;1.456;2023-07-28T05:29:03;20.48;79.53
65584;DHT22;70321;43.592;1.456;2023-07-28T05:31:30;20.53;79.57
65584;DHT22;70321;43.592;1.456;2023-07-28T05:33:58;20.55;79.42
65584;DHT22;70321;43.592;1.456;2023-07-28T05:36:24;20.54;79.42
65584;DHT22;70321;43.592;1.456;2023-07-28T05:38:51;20.54;79.35
65584;DHT22;70321;43.592;1.456;2023-07-28T05:41:20;20.54;79.43
65584;DHT22;70321;43.592;1.456;2023-07-28T05:43:46;20.54;79.42
65584;DHT22;70321;43.592;1.456;2023-07-28T05:46:17;20.57;79.45
65584;DHT22;70321;43.592;1.456;2023-07-28T05:48:43;20.60;79.33
65584;DHT22;70321;43.592;1.456;2023-07-28T05:51:10;20.58;79.26
65584;DHT22;70321;43.592;1.456;2023-07-28T05:53:37;20.67;79.32
65584;DHT22;70321;43.592;1.456;2023-07-28T05:56:04;20.70;79.33
65584;DHT22;70321;43.592;1.456;2023-07-28T05:58:31;20.71;79.23
65584;DHT22;70321;43.592;1.456;2023-07-28T06:00:57;20.70;79.08
65584;DHT22;70321;43.592;1.456;2023-07-28T06:03:24;20.73;79.08
65584;DHT22;70321;43.592;1.456;2023-07-28T06:05:52;20.74;79.03
65584;DHT22;70321;43.592;1.456;2023-07-28T06:08:18;20.80;79.06
65584;DHT22;70321;43.592;1.456;2023-07-28T06:10:45;20.81;78.96
65584;DHT22;70321;43.592;1.456;2023-07-28T06:13:12;20.83;78.88
65584;DHT22;70321;43.592;1.456;2023-07-28T06:15:39;20.85;78.74
65584;DHT22;70321;43.592;1.456;2023-07-28T06:18:06;20.85;78.75
65584;DHT22;70321;43.592;1.456;2023-07-28T06:20:33;20.90;78.66
65584;DHT22;70321;43.592;1.456;2023-07-28T06:23:01;20.92;78.30
65584;DHT22;70321;43.592;1.456;2023-07-28T06:25:27;20.96;78.41
65584;DHT22;70321;43.592;1.456;2023-07-28T06:27:54;21.01;78.37
65584;DHT22;70321;43.592;1.456;2023-07-28T06:30:21;21.09;78.91
65584;DHT22;70321;43.592;1.456;2023-07-28T06:32:48;21.14;78.65
65584;DHT22;70321;43.592;1.456;2023-07-28T06:35:15;21.21;78.21
65584;DHT22;70321;43.592;1.456;2023-07-28T06:37:41;21.24;77.95
65584;DHT22;70321;43.592;1.456;2023-07-28T06:40:09;21.31;77.71
65584;DHT22;70321;43.592;1.456;2023-07-28T06:42:36;21.35;77.69
65584;DHT22;70321;43.592;1.456;2023-07-28T06:45:03;21.38;77.67
65584;DHT22;70321;43.592;1.456;2023-07-28T06:47:30;21.39;77.74
65584;DHT22;70321;43.592;1.456;2023-07-28T06:49:57;21.48;77.97
65584;DHT22;70321;43.592;1.456;2023-07-28T06:52:23;21.52;77.66
65584;DHT22;70321;43.592;1.456;2023-07-28T06:54:50;21.52;77.08
65584;DHT22;70321;43.592;1.456;2023-07-28T06:57:17;21.53;77.28
65584;DHT22;70321;43.592;1.456;2023-07-28T06:59:44;21.55;77.36
65584;DHT22;70321;43.592;1.456;2023-07-28T07:02:10;21.60;77.29
65584;DHT22;70321;43.592;1.456;2023-07-28T07:04:38;21.62;77.31
65584;DHT22;70321;43.592;1.456;2023-07-28T07:07:04;21.66;77.52
65584;DHT22;70321;43.592;1.456;2023-07-28T07:09:31;21.70;77.16
65584;DHT22;70321;43.592;1.456;2023-07-28T07:11:58;21.67;76.83
65584;DHT22;70321;43.592;1.456;2023-07-28T07:14:25;21.69;76.98
65584;DHT22;70321;43.592;1.456;2023-07-28T07:16:51;21.69;77.02
65584;DHT22;70321;43.592;1.456;2023-07-28T07:19:18;21.73;76.97
65584;DHT22;70321;43.592;1.456;2023-07-28T07:21:45;21.80;76.39
65584;DHT22;70321;43.592;1.456;2023-07-28T07:24:15;21.80;76.48
65584;DHT22;70321;43.592;1.456;2023-07-28T07:26:42;21.85;76.49
65584;DHT22;70321;43.592;1.456;2023-07-28T07:29:08;21.90;76.47
65584;DHT22;70321;43.592;1.456;2023-07-28T07:31:36;21.94;76.19
65584;DHT22;70321;43.592;1.456;2023-07-28T07:34:03;21.97;76.35
65584;DHT22;70321;43.592;1.456;2023-07-28T07:36:31;21.99;76.32
65584;DHT22;70321;43.592;1.456;2023-07-28T07:38:57;21.99;76.16
65584;DHT22;70321;43.592;1.456;2023-07-28T07:41:24;22.02;76.12
65584;DHT22;70321;43.592;1.456;2023-07-28T07:43:54;22.07;76.56
65584;DHT22;70321;43.592;1.456;2023-07-28T07:46:21;22.13;76.39
65584;DHT22;70321;43.592;1.456;2023-07-28T07:48:49;22.18;76.27
65584;DHT22;70321;43.592;1.456;2023-07-28T07:51:16;22.23;76.46
65584;DHT22;70321;43.592;1.456;2023-07-28T07:53:43;22.32;76.51
65584;DHT22;70321;43.592;1.456;2023-07-28T07:56:10;22.40;76.31
65584;DHT22;70321;43.592;1.456;2023-07-28T07:58:37;22.48;76.10
65584;DHT22;70321;43.592;1.456;2023-07-28T08:01:04;22.54;75.32
65584;DHT22;70321;43.592;1.456;2023-07-28T08:03:31;22.58;74.65
65584;DHT22;70321;43.592;1.456;2023-07-28T08:06:02;22.64;74.87
65584;DHT22;70321;43.592;1.456;2023-07-28T08:08:29;22.67;74.93
65584;DHT22;70321;43.592;1.456;2023-07-28T08:10:56;22.72;74.47
65584;DHT22;70321;43.592;1.456;2023-07-28T08:13:23;22.72;74.29
65584;DHT22;70321;43.592;1.456;2023-07-28T08:15:50;22.74;74.43
65584;DHT22;70321;43.592;1.456;2023-07-28T08:18:17;22.77;73.11
65584;DHT22;70321;43.592;1.456;2023-07-28T08:20:44;22.78;73.35
65584;DHT22;70321;43.592;1.456;2023-07-28T08:23:10;22.81;73.77
65584;DHT22;70321;43.592;1.456;2023-07-28T08:25:37;22.83;72.83
65584;DHT22;70321;43.592;1.456;2023-07-28T08:28:04;22.85;72.81
65584;DHT22;70321;43.592;1.456;2023-07-28T08:30:31;22.87;72.82
65584;DHT22;70321;43.592;1.456;2023-07-28T08:32:59;22.88;72.43
65584;DHT22;70321;43.592;1.456;2023-07-28T08:35:25;22.90;72.75
65584;DHT22;70321;43.592;1.456;2023-07-28T08:37:52;22.94;72.49
65584;DHT22;70321;43.592;1.456;2023-07-28T08:40:19;22.99;72.90
65584;DHT22;70321;43.592;1.456;2023-07-28T08:42:46;23.02;72.67
65584;DHT22;70321;43.592;1.456;2023-07-28T08:45:13;23.04;73.04
65584;DHT22;70321;43.592;1.456;2023-07-28T08:47:40;23.08;72.70
65584;DHT22;70321;43.592;1.456;2023-07-28T08:50:07;23.09;72.47
65584;DHT22;70321;43.592;1.456;2023-07-28T08:52:34;23.11;72.39
65584;DHT22;70321;43.592;1.456;2023-07-28T08:55:01;23.14;72.58
65584;DHT22;70321;43.592;1.456;2023-07-28T08:57:27;23.14;72.82
65584;DHT22;70321;43.592;1.456;2023-07-28T08:59:55;23.18;72.61
65584;DHT22;70321;43.592;1.456;2023-07-28T09:02:22;23.23;72.31
65584;DHT22;70321;43.592;1.456;2023-07-28T09:04:49;23.30;72.70
65584;DHT22;70321;43.592;1.456;2023-07-28T09:07:16;23.38;72.72
65584;DHT22;70321;43.592;1.456;2023-07-28T09:09:43;23.42;72.59
65584;DHT22;70321;43.592;1.456;2023-07-28T09:12:10;23.46;70.39
65584;DHT22;70321;43.592;1.456;2023-07-28T09:14:38;23.50;70.80
65584;DHT22;70321;43.592;1.456;2023-07-28T09:17:12;23.55;70.12
65584;DHT22;70321;43.592;1.456;2023-07-28T09:19:56;23.63;69.79
65584;DHT22;70321;43.592;1.456;2023-07-28T09:22:23;23.67;69.12
65584;DHT22;70321;43.592;1.456;2023-07-28T09:24:50;23.72;69.54
65584;DHT22;70321;43.592;1.456;2023-07-28T09:27:28;23.77;69.50
65584;DHT22;70321;43.592;1.456;2023-07-28T09:29:55;23.83;70.07
65584;DHT22;70321;43.592;1.456;2023-07-28T09:32:30;23.92;69.87
65584;DHT22;70321;43.592;1.456;2023-07-28T09:35:10;23.97;70.10
65584;DHT22;70321;43.592;1.456;2023-07-28T09:37:40;24.04;69.57
65584;DHT22;70321;43.592;1.456;2023-07-28T09:40:09;24.09;69.52
65584;DHT22;70321;43.592;1.456;2023-07-28T09:42:40;24.13;69.94
65584;DHT22;70321;43.592;1.456;2023-07-28T09:45:07;24.13;70.07
65584;DHT22;70321;43.592;1.456;2023-07-28T09:47:54;24.18;70.04
65584;DHT22;70321;43.592;1.456;2023-07-28T09:50:24;24.17;70.22
65584;DHT22;70321;43.592;1.456;2023-07-28T09:52:54;24.18;69.85
65584;DHT22;70321;43.592;1.456;2023-07-28T09:55:24;24.21;69.11
65584;DHT22;70321;43.592;1.456;2023-07-28T09:57:54;24.24;68.45
65584;DHT22;70321;43.592;1.456;2023-07-28T10:00:22;24.23;67.87
65584;DHT22;70321;43.592;1.456;2023-07-28T10:02:50;24.26;68.60
65584;DHT22;70321;43.592;1.456;2023-07-28T10:05:17;24.28;68.30
65584;DHT22;70321;43.592;1.456;2023-07-28T10:07:45;24.37;68.09
65584;DHT22;70321;43.592;1.456;2023-07-28T10:10:14;24.46;67.79
65584;DHT22;70321;43.592;1.456;2023-07-28T10:12:45;24.54;66.65
65584;DHT22;70321;43.592;1.456;2023-07-28T10:15:15;24.64;66.96
65584;DHT22;70321;43.592;1.456;2023-07-28T10:17:50;24.71;66.98
65584;DHT22;70321;43.592;1.456;2023-07-28T10:20:37;24.82;67.61
65584;DHT22;70321;43.592;1.456;2023-07-28T10:23:20;24.89;68.38
65584;DHT22;70321;43.592;1.456;2023-07-28T10:25:59;25.01;66.28
65584;DHT22;70321;43.592;1.456;2023-07-28T10:28:35;25.05;65.30
65584;DHT22;70321;43.592;1.456;2023-07-28T10:31:06;25.11;66.68
65584;DHT22;70321;43.592;1.456;2023-07-28T10:33:38;25.14;66.01
65584;DHT22;70321;43.592;1.456;2023-07-28T10:36:12;25.15;66.58
65584;DHT22;70321;43.592;1.456;2023-07-28T10:38:39;25.15;66.38
65584;DHT22;70321;43.592;1.456;2023-07-28T10:41:12;25.15;66.01
65584;DHT22;70321;43.592;1.456;2023-07-28T10:43:40;25.16;65.37
65584;DHT22;70321;43.592;1.456;2023-07-28T10:46:08;25.18;65.33
65584;DHT22;70321;43.592;1.456;2023-07-28T10:48:36;25.25;66.27
65584;DHT22;70321;43.592;1.456;2023-07-28T10:51:04;25.26;66.68
65584;DHT22;70321;43.592;1.456;2023-07-28T10:53:31;25.35;66.41
65584;DHT22;70321;43.592;1.456;2023-07-28T10:55:58;25.42;67.19
65584;DHT22;70321;43.592;1.456;2023-07-28T10:58:26;25.55;66.70
65584;DHT22;70321;43.592;1.456;2023-07-28T11:00:52;25.59;66.24
65584;DHT22;70321;43.592;1.456;2023-07-28T11:03:19;25.59;65.43
65584;DHT22;70321;43.592;1.456;2023-07-28T11:05:48;25.50;64.86
65584;DHT22;70321;43.592;1.456;2023-07-28T11:08:15;25.43;64.72
65584;DHT22;70321;43.592;1.456;2023-07-28T11:10:42;25.41;64.73
65584;DHT22;70321;43.592;1.456;2023-07-28T11:13:09;25.38;64.74
65584;DHT22;70321;43.592;1.456;2023-07-28T11:15:57;25.39;65.01
65584;DHT22;70321;43.592;1.456;2023-07-28T11:18:25;25.38;66.23
65584;DHT22;70321;43.592;1.456;2023-07-28T11:20:52;25.42;64.99
65584;DHT22;70321;43.592;1.456;2023-07-28T11:23:19;25.41;63.45
65584;DHT22;70321;43.592;1.456;2023-07-28T11:25:46;25.49;65.24
65584;DHT22;70321;43.592;1.456;2023-07-28T11:28:14;25.52;64.33
65584;DHT22;70321;43.592;1.456;2023-07-28T11:30:40;25.59;64.78
65584;DHT22;70321;43.592;1.456;2023-07-28T11:33:10;25.65;64.73
65584;DHT22;70321;43.592;1.456;2023-07-28T11:35:39;25.70;65.38
65584;DHT22;70321;43.592;1.456;2023-07-28T11:38:07;25.76;65.66
65584;DHT22;70321;43.592;1.456;2023-07-28T11:40:35;25.82;65.11
65584;DHT22;70321;43.592;1.456;2023-07-28T11:43:03;25.83;65.52
65584;DHT22;70321;43.592;1.456;2023-07-28T11:45:30;25.89;64.45
65584;DHT22;70321;43.592;1.456;2023-07-28T11:47:57;25.90;64.58
65584;DHT22;70321;43.592;1.456;2023-07-28T11:50:26;25.86;63.55
65584;DHT22;70321;43.592;1.456;2023-07-28T11:52:53;25.80;62.64
65584;DHT22;70321;43.592;1.456;2023-07-28T11:55:21;25.77;64.71
65584;DHT22;70321;43.592;1.456;2023-07-28T11:57:49;25.79;62.92
65584;DHT22;70321;43.592;1.456;2023-07-28T12:00:16;25.75;64.32
65584;DHT22;70321;43.592;1.456;2023-07-28T12:02:44;25.72;65.46
65584;DHT22;70321;43.592;1.456;2023-07-28T12:05:15;25.75;65.37
65584;DHT22;70321;43.592;1.456;2023-07-28T12:07:47;25.77;63.58
65584;DHT22;70321;43.592;1.456;2023-07-28T12:10:14;25.76;64.91
65584;DHT22;70321;43.592;1.456;2023-07-28T12:13:06;25.76;65.48
65584;DHT22;70321;43.592;1.456;2023-07-28T12:15:40;25.79;66.28
65584;DHT22;70321;43.592;1.456;2023-07-28T12:20:46;25.86;65.95
65584;DHT22;70321;43.592;1.456;2023-07-28T12:23:15;25.90;64.87
65584;DHT22;70321;43.592;1.456;2023-07-28T12:25:45;25.96;65.46
65584;DHT22;70321;43.592;1.456;2023-07-28T12:28:12;26.04;64.79
65584;DHT22;70321;43.592;1.456;2023-07-28T12:30:42;26.16;65.42
65584;DHT22;70321;43.592;1.456;2023-07-28T12:33:10;26.23;64.07
65584;DHT22;70321;43.592;1.456;2023-07-28T12:35:47;26.36;64.04
65584;DHT22;70321;43.592;1.456;2023-07-28T12:38:16;26.47;63.04
65584;DHT22;70321;43.592;1.456;2023-07-28T12:40:46;26.54;63.04
65584;DHT22;70321;43.592;1.456;2023-07-28T12:43:16;26.57;60.88
65584;DHT22;70321;43.592;1.456;2023-07-28T12:45:46;26.58;62.00
65584;DHT22;70321;43.592;1.456;2023-07-28T12:48:15;26.64;61.81
65584;DHT22;70321;43.592;1.456;2023-07-28T12:50:45;26.70;62.57
65584;DHT22;70321;43.592;1.456;2023-07-28T12:53:13;26.77;62.84
65584;DHT22;70321;43.592;1.456;2023-07-28T12:55:45;26.80;61.52
65584;DHT22;70321;43.592;1.456;2023-07-28T12:58:15;26.82;60.71
65584;DHT22;70321;43.592;1.456;2023-07-28T13:00:44;26.90;60.94
65584;DHT22;70321;43.592;1.456;2023-07-28T13:03:14;26.96;59.84
65584;DHT22;70321;43.592;1.456;2023-07-28T13:05:41;26.99;60.35
65584;DHT22;70321;43.592;1.456;2023-07-28T13:08:10;27.05;59.62
65584;DHT22;70321;43.592;1.456;2023-07-28T13:10:37;27.11;60.63
65584;DHT22;70321;43.592;1.456;2023-07-28T13:13:07;27.14;58.60
65584;DHT22;70321;43.592;1.456;2023-07-28T13:15:39;27.16;58.88
65584;DHT22;70321;43.592;1.456;2023-07-28T13:18:06;27.21;59.02
65584;DHT22;70321;43.592;1.456;2023-07-28T13:20:32;27.26;59.79
65584;DHT22;70321;43.592;1.456;2023-07-28T13:22:59;27.25;57.86
65584;DHT22;70321;43.592;1.456;2023-07-28T13:25:26;27.32;58.49
65584;DHT22;70321;43.592;1.456;2023-07-28T13:27:53;27.36;58.41
65584;DHT22;70321;43.592;1.456;2023-07-28T13:30:20;27.43;58.00
65584;DHT22;70321;43.592;1.456;2023-07-28T13:32:46;27.47;57.99
65584;DHT22;70321;43.592;1.456;2023-07-28T13:35:13;27.50;56.86
65584;DHT22;70321;43.592;1.456;2023-07-28T13:37:41;27.55;58.73
65584;DHT22;70321;43.592;1.456;2023-07-28T13:40:08;27.62;60.27
65584;DHT22;70321;43.592;1.456;2023-07-28T13:42:37;27.67;57.72
65584;DHT22;70321;43.592;1.456;2023-07-28T13:45:04;27.71;59.04
65584;DHT22;70321;43.592;1.456;2023-07-28T13:47:31;27.79;58.25
65584;DHT22;70321;43.592;1.456;2023-07-28T13:49:58;27.83;57.71
65584;DHT22;70321;43.592;1.456;2023-07-28T13:52:25;27.86;55.51
65584;DHT22;70321;43.592;1.456;2023-07-28T13:54:52;27.87;56.15
65584;DHT22;70321;43.592;1.456;2023-07-28T13:57:21;27.90;55.58
65584;DHT22;70321;43.592;1.456;2023-07-28T13:59:48;27.93;57.84
65584;DHT22;70321;43.592;1.456;2023-07-28T14:02:18;27.96;56.57
65584;DHT22;70321;43.592;1.456;2023-07-28T14:04:45;27.97;56.38
65584;DHT22;70321;43.592;1.456;2023-07-28T14:07:12;28.00;55.98
65584;DHT22;70321;43.592;1.456;2023-07-28T14:09:39;28.09;56.68
65584;DHT22;70321;43.592;1.456;2023-07-28T14:12:06;28.10;54.62
65584;DHT22;70321;43.592;1.456;2023-07-28T14:14:33;28.09;55.88
65584;DHT22;70321;43.592;1.456;2023-07-28T14:17:00;28.09;55.98
65584;DHT22;70321;43.592;1.456;2023-07-28T14:19:27;28.03;55.94
65584;DHT22;70321;43.592;1.456;2023-07-28T14:21:53;28.06;56.03
65584;DHT22;70321;43.592;1.456;2023-07-28T14:24:20;28.06;56.52
65584;DHT22;70321;43.592;1.456;2023-07-28T14:26:47;28.09;55.23
65584;DHT22;70321;43.592;1.456;2023-07-28T14:29:14;28.14;55.64
65584;DHT22;70321;43.592;1.456;2023-07-28T14:31:40;28.17;55.35
65584;DHT22;70321;43.592;1.456;2023-07-28T14:34:07;28.21;56.08
65584;DHT22;70321;43.592;1.456;2023-07-28T14:36:34;28.25;55.48
65584;DHT22;70321;43.592;1.456;2023-07-28T14:39:02;28.30;54.60
65584;DHT22;70321;43.592;1.456;2023-07-28T14:41:31;28.28;54.51
65584;DHT22;70321;43.592;1.456;2023-07-28T14:43:58;28.28;54.66
65584;DHT22;70321;43.592;1.456;2023-07-28T14:46:24;28.25;54.02
65584;DHT22;70321;43.592;1.456;2023-07-28T14:48:52;28.28;54.64
65584;DHT22;70321;43.592;1.456;2023-07-28T14:51:19;28.30;54.71
65584;DHT22;70321;43.592;1.456;2023-07-28T14:53:47;28.36;55.22
65584;DHT22;70321;43.592;1.456;2023-07-28T14:56:15;28.33;55.02
65584;DHT22;70321;43.592;1.456;2023-07-28T14:58:42;28.36;54.96
65584;DHT22;70321;43.592;1.456;2023-07-28T15:01:10;28.40;53.77
65584;DHT22;70321;43.592;1.456;2023-07-28T15:03:37;28.44;53.34
65584;DHT22;70321;43.592;1.456;2023-07-28T15:06:04;28.41;55.02
65584;DHT22;70321;43.592;1.456;2023-07-28T15:08:32;28.41;56.88
65584;DHT22;70321;43.592;1.456;2023-07-28T15:10:59;28.43;57.15
65584;DHT22;70321;43.592;1.456;2023-07-28T15:13:26;28.47;56.56
65584;DHT22;70321;43.592;1.456;2023-07-28T15:15:53;28.47;55.44
65584;DHT22;70321;43.592;1.456;2023-07-28T15:18:20;28.48;54.26
65584;DHT22;70321;43.592;1.456;2023-07-28T15:20:46;28.47;54.44
65584;DHT22;70321;43.592;1.456;2023-07-28T15:23:13;28.47;56.47
65584;DHT22;70321;43.592;1.456;2023-07-28T15:25:40;28.48;56.68
65584;DHT22;70321;43.592;1.456;2023-07-28T15:28:10;28.50;53.77
65584;DHT22;70321;43.592;1.456;2023-07-28T15:30:37;28.48;53.15
65584;DHT22;70321;43.592;1.456;2023-07-28T15:33:04;28.52;54.71
65584;DHT22;70321;43.592;1.456;2023-07-28T15:35:31;28.52;51.99
65584;DHT22;70321;43.592;1.456;2023-07-28T15:37:58;28.54;52.21